Decatur, Tennessee
Current Conditions -  °F | °C
As of 5:15 AM on Monday 26 Jan 2015 (Local Time) from KMMI Reporting Station
Overcast Overcast  
Wind Chill: 38°   Ceiling: 3800
Heat Index: 41°   Visibility: 10mi
Dew Point: 36°   Wind: 5mph
Humidity: 81%   Direction: NA
Pressure: 29.74"   Gusts: NA
Location:  35.51°N, 84.79°W
Report Text: KMMI 261015Z AUTO VRB04KT 10SM BKN038 OVC060 05/02 A2974 RMK
Loading
Personal Weather Stations






























Interactive Weather Map New forecast layout! Learn more

10-Day Weather Forecast

Advertisements
Track Severe Weather on mobile